sensor_id;sensor_type;location;lat;lon;timestamp;P1;durP1;ratioP1;P2;durP2;ratioP2
12484;SDS011;6307;46.804;11.580;2022-09-06T00:00:56;5.30;;;4.80;;
12484;SDS011;6307;46.804;11.580;2022-09-06T00:03:23;6.13;;;5.17;;
12484;SDS011;6307;46.804;11.580;2022-09-06T00:05:52;5.80;;;5.30;;
12484;SDS011;6307;46.804;11.580;2022-09-06T00:08:19;6.10;;;4.70;;
12484;SDS011;6307;46.804;11.580;2022-09-06T00:10:45;6.00;;;5.20;;
12484;SDS011;6307;46.804;11.580;2022-09-06T00:13:11;5.60;;;5.00;;
12484;SDS011;6307;46.804;11.580;2022-09-06T00:15:37;8.23;;;5.60;;
12484;SDS011;6307;46.804;11.580;2022-09-06T00:18:05;6.40;;;5.57;;
12484;SDS011;6307;46.804;11.580;2022-09-06T00:20:32;6.67;;;4.97;;
12484;SDS011;6307;46.804;11.580;2022-09-06T00:23:00;5.87;;;5.17;;
12484;SDS011;6307;46.804;11.580;2022-09-06T00:25:29;6.57;;;5.37;;
12484;SDS011;6307;46.804;11.580;2022-09-06T00:27:58;5.70;;;5.10;;
12484;SDS011;6307;46.804;11.580;2022-09-06T00:30:29;9.53;;;5.60;;
12484;SDS011;6307;46.804;11.580;2022-09-06T00:32:57;6.30;;;5.70;;
12484;SDS011;6307;46.804;11.580;2022-09-06T00:35:24;6.63;;;5.50;;
12484;SDS011;6307;46.804;11.580;2022-09-06T00:37:58;6.33;;;5.20;;
12484;SDS011;6307;46.804;11.580;2022-09-06T00:40:26;7.53;;;4.87;;
12484;SDS011;6307;46.804;11.580;2022-09-06T00:42:56;10.17;;;5.23;;
12484;SDS011;6307;46.804;11.580;2022-09-06T00:45:23;6.73;;;5.47;;
12484;SDS011;6307;46.804;11.580;2022-09-06T00:47:52;7.53;;;5.57;;
12484;SDS011;6307;46.804;11.580;2022-09-06T00:50:20;5.90;;;5.33;;
12484;SDS011;6307;46.804;11.580;2022-09-06T00:52:47;10.30;;;5.87;;
12484;SDS011;6307;46.804;11.580;2022-09-06T00:55:16;5.73;;;5.23;;
12484;SDS011;6307;46.804;11.580;2022-09-06T00:57:44;5.73;;;5.23;;
12484;SDS011;6307;46.804;11.580;2022-09-06T01:00:15;11.43;;;5.67;;
12484;SDS011;6307;46.804;11.580;2022-09-06T01:02:43;6.20;;;5.53;;
12484;SDS011;6307;46.804;11.580;2022-09-06T01:05:10;5.90;;;5.40;;
12484;SDS011;6307;46.804;11.580;2022-09-06T01:07:43;6.67;;;5.50;;
12484;SDS011;6307;46.804;11.580;2022-09-06T01:16:35;6.63;;;5.60;;
12484;SDS011;6307;46.804;11.580;2022-09-06T01:22:10;6.90;;;5.67;;
12484;SDS011;6307;46.804;11.580;2022-09-06T01:25:12;7.73;;;5.57;;
12484;SDS011;6307;46.804;11.580;2022-09-06T01:36:31;9.73;;;5.97;;
12484;SDS011;6307;46.804;11.580;2022-09-06T01:39:04;6.10;;;5.50;;
12484;SDS011;6307;46.804;11.580;2022-09-06T01:41:30;5.83;;;5.23;;
12484;SDS011;6307;46.804;11.580;2022-09-06T01:43:57;5.43;;;4.93;;
12484;SDS011;6307;46.804;11.580;2022-09-06T01:46:35;6.57;;;5.20;;
12484;SDS011;6307;46.804;11.580;2022-09-06T01:52:19;5.70;;;5.00;;
12484;SDS011;6307;46.804;11.580;2022-09-06T02:00:59;6.23;;;5.63;;
12484;SDS011;6307;46.804;11.580;2022-09-06T02:03:36;7.30;;;5.70;;
12484;SDS011;6307;46.804;11.580;2022-09-06T02:06:13;10.57;;;5.40;;
12484;SDS011;6307;46.804;11.580;2022-09-06T02:08:47;7.63;;;5.30;;
12484;SDS011;6307;46.804;11.580;2022-09-06T02:11:38;6.53;;;5.43;;
12484;SDS011;6307;46.804;11.580;2022-09-06T02:14:15;6.03;;;5.33;;
12484;SDS011;6307;46.804;11.580;2022-09-06T02:16:58;6.10;;;5.47;;
12484;SDS011;6307;46.804;11.580;2022-09-06T02:19:32;9.20;;;5.77;;
12484;SDS011;6307;46.804;11.580;2022-09-06T02:22:08;6.50;;;5.87;;
12484;SDS011;6307;46.804;11.580;2022-09-06T02:24:39;6.83;;;5.57;;
12484;SDS011;6307;46.804;11.580;2022-09-06T02:27:10;9.37;;;5.37;;
12484;SDS011;6307;46.804;11.580;2022-09-06T02:29:38;7.57;;;5.90;;
12484;SDS011;6307;46.804;11.580;2022-09-06T02:32:41;10.13;;;6.17;;
12484;SDS011;6307;46.804;11.580;2022-09-06T02:35:12;8.30;;;6.03;;
12484;SDS011;6307;46.804;11.580;2022-09-06T02:37:41;7.47;;;5.50;;
12484;SDS011;6307;46.804;11.580;2022-09-06T02:40:10;6.00;;;5.20;;
12484;SDS011;6307;46.804;11.580;2022-09-06T02:42:36;7.23;;;5.47;;
12484;SDS011;6307;46.804;11.580;2022-09-06T02:45:05;7.43;;;5.00;;
12484;SDS011;6307;46.804;11.580;2022-09-06T02:47:33;5.97;;;4.97;;
12484;SDS011;6307;46.804;11.580;2022-09-06T02:49:59;6.27;;;5.67;;
12484;SDS011;6307;46.804;11.580;2022-09-06T02:52:25;11.17;;;5.37;;
12484;SDS011;6307;46.804;11.580;2022-09-06T02:54:51;7.40;;;4.63;;
12484;SDS011;6307;46.804;11.580;2022-09-06T02:57:18;7.20;;;5.53;;
12484;SDS011;6307;46.804;11.580;2022-09-06T02:59:44;6.57;;;5.43;;
12484;SDS011;6307;46.804;11.580;2022-09-06T03:02:10;6.70;;;5.33;;
12484;SDS011;6307;46.804;11.580;2022-09-06T03:04:36;5.50;;;5.00;;
12484;SDS011;6307;46.804;11.580;2022-09-06T03:07:02;7.50;;;5.30;;
12484;SDS011;6307;46.804;11.580;2022-09-06T03:09:29;7.47;;;5.90;;
12484;SDS011;6307;46.804;11.580;2022-09-06T03:11:55;7.70;;;4.93;;
12484;SDS011;6307;46.804;11.580;2022-09-06T03:14:21;5.70;;;4.90;;
12484;SDS011;6307;46.804;11.580;2022-09-06T03:16:47;8.63;;;5.57;;
12484;SDS011;6307;46.804;11.580;2022-09-06T03:19:13;7.90;;;5.63;;
12484;SDS011;6307;46.804;11.580;2022-09-06T03:21:39;7.83;;;6.17;;
12484;SDS011;6307;46.804;11.580;2022-09-06T03:24:05;7.07;;;5.40;;
12484;SDS011;6307;46.804;11.580;2022-09-06T03:26:32;6.53;;;5.93;;
12484;SDS011;6307;46.804;11.580;2022-09-06T03:28:58;7.00;;;5.90;;
12484;SDS011;6307;46.804;11.580;2022-09-06T03:31:24;7.03;;;6.17;;
12484;SDS011;6307;46.804;11.580;2022-09-06T03:33:50;7.20;;;5.57;;
12484;SDS011;6307;46.804;11.580;2022-09-06T03:36:16;9.77;;;6.17;;
12484;SDS011;6307;46.804;11.580;2022-09-06T03:38:42;8.40;;;6.70;;
12484;SDS011;6307;46.804;11.580;2022-09-06T03:41:09;6.07;;;5.37;;
12484;SDS011;6307;46.804;11.580;2022-09-06T03:43:35;6.67;;;5.43;;
12484;SDS011;6307;46.804;11.580;2022-09-06T03:46:01;9.13;;;5.60;;
12484;SDS011;6307;46.804;11.580;2022-09-06T03:48:28;7.03;;;5.70;;
12484;SDS011;6307;46.804;11.580;2022-09-06T03:50:55;7.73;;;5.83;;
12484;SDS011;6307;46.804;11.580;2022-09-06T03:53:23;6.80;;;5.37;;
12484;SDS011;6307;46.804;11.580;2022-09-06T03:55:52;6.90;;;6.03;;
12484;SDS011;6307;46.804;11.580;2022-09-06T03:58:21;7.83;;;5.63;;
12484;SDS011;6307;46.804;11.580;2022-09-06T04:00:58;5.73;;;5.27;;
12484;SDS011;6307;46.804;11.580;2022-09-06T04:03:26;7.17;;;6.07;;
12484;SDS011;6307;46.804;11.580;2022-09-06T04:05:52;6.30;;;5.13;;
12484;SDS011;6307;46.804;11.580;2022-09-06T04:08:18;6.27;;;5.50;;
12484;SDS011;6307;46.804;11.580;2022-09-06T04:10:44;7.07;;;6.37;;
12484;SDS011;6307;46.804;11.580;2022-09-06T04:13:17;9.60;;;6.07;;
12484;SDS011;6307;46.804;11.580;2022-09-06T04:15:46;9.33;;;5.97;;
12484;SDS011;6307;46.804;11.580;2022-09-06T04:18:13;7.87;;;6.43;;
12484;SDS011;6307;46.804;11.580;2022-09-06T04:20:40;6.50;;;5.90;;
12484;SDS011;6307;46.804;11.580;2022-09-06T04:23:06;9.03;;;5.90;;
12484;SDS011;6307;46.804;11.580;2022-09-06T04:25:33;6.70;;;5.93;;
12484;SDS011;6307;46.804;11.580;2022-09-06T04:27:59;7.33;;;6.00;;
12484;SDS011;6307;46.804;11.580;2022-09-06T04:30:26;9.63;;;6.27;;
12484;SDS011;6307;46.804;11.580;2022-09-06T04:32:52;9.13;;;6.10;;
12484;SDS011;6307;46.804;11.580;2022-09-06T04:35:18;6.30;;;5.70;;
12484;SDS011;6307;46.804;11.580;2022-09-06T04:37:44;6.33;;;5.73;;
12484;SDS011;6307;46.804;11.580;2022-09-06T04:40:10;7.40;;;5.40;;
12484;SDS011;6307;46.804;11.580;2022-09-06T04:42:37;7.40;;;5.67;;
12484;SDS011;6307;46.804;11.580;2022-09-06T04:45:03;7.67;;;5.13;;
12484;SDS011;6307;46.804;11.580;2022-09-06T04:47:31;6.87;;;5.83;;
12484;SDS011;6307;46.804;11.580;2022-09-06T04:49:58;5.83;;;5.33;;
12484;SDS011;6307;46.804;11.580;2022-09-06T04:52:24;7.30;;;5.40;;
12484;SDS011;6307;46.804;11.580;2022-09-06T04:54:50;6.23;;;5.30;;
12484;SDS011;6307;46.804;11.580;2022-09-06T04:57:16;5.70;;;5.20;;
12484;SDS011;6307;46.804;11.580;2022-09-06T04:59:42;5.97;;;5.30;;
12484;SDS011;6307;46.804;11.580;2022-09-06T05:02:08;7.40;;;5.63;;
12484;SDS011;6307;46.804;11.580;2022-09-06T05:04:34;5.67;;;5.10;;
12484;SDS011;6307;46.804;11.580;2022-09-06T05:07:01;8.13;;;5.60;;
12484;SDS011;6307;46.804;11.580;2022-09-06T05:09:30;7.93;;;5.43;;
12484;SDS011;6307;46.804;11.580;2022-09-06T05:11:58;6.30;;;5.67;;
12484;SDS011;6307;46.804;11.580;2022-09-06T05:14:25;5.93;;;5.23;;
12484;SDS011;6307;46.804;11.580;2022-09-06T05:16:53;5.63;;;5.10;;
12484;SDS011;6307;46.804;11.580;2022-09-06T05:19:20;8.33;;;5.40;;
12484;SDS011;6307;46.804;11.580;2022-09-06T05:21:46;5.57;;;4.80;;
12484;SDS011;6307;46.804;11.580;2022-09-06T05:24:14;5.73;;;4.80;;
12484;SDS011;6307;46.804;11.580;2022-09-06T05:26:40;7.10;;;4.90;;
12484;SDS011;6307;46.804;11.580;2022-09-06T05:29:06;5.13;;;4.70;;
12484;SDS011;6307;46.804;11.580;2022-09-06T05:31:33;6.43;;;5.00;;
12484;SDS011;6307;46.804;11.580;2022-09-06T05:33:59;7.40;;;4.77;;
12484;SDS011;6307;46.804;11.580;2022-09-06T05:36:26;5.67;;;5.00;;
12484;SDS011;6307;46.804;11.580;2022-09-06T05:38:55;4.80;;;4.17;;
12484;SDS011;6307;46.804;11.580;2022-09-06T05:41:22;5.70;;;4.80;;
12484;SDS011;6307;46.804;11.580;2022-09-06T05:43:49;6.43;;;4.37;;
12484;SDS011;6307;46.804;11.580;2022-09-06T05:46:16;5.13;;;4.23;;
12484;SDS011;6307;46.804;11.580;2022-09-06T05:48:42;7.90;;;4.50;;
12484;SDS011;6307;46.804;11.580;2022-09-06T05:51:15;4.97;;;4.30;;
12484;SDS011;6307;46.804;11.580;2022-09-06T05:53:42;9.90;;;4.57;;
12484;SDS011;6307;46.804;11.580;2022-09-06T05:56:10;5.73;;;3.90;;
12484;SDS011;6307;46.804;11.580;2022-09-06T05:58:38;9.57;;;4.20;;
12484;SDS011;6307;46.804;11.580;2022-09-06T06:01:18;5.37;;;4.47;;
12484;SDS011;6307;46.804;11.580;2022-09-06T06:06:30;7.07;;;4.27;;
12484;SDS011;6307;46.804;11.580;2022-09-06T06:08:58;5.13;;;3.80;;
12484;SDS011;6307;46.804;11.580;2022-09-06T06:11:25;10.17;;;4.13;;
12484;SDS011;6307;46.804;11.580;2022-09-06T06:13:52;4.47;;;4.07;;
12484;SDS011;6307;46.804;11.580;2022-09-06T06:16:19;5.83;;;4.00;;
12484;SDS011;6307;46.804;11.580;2022-09-06T06:18:47;4.47;;;4.07;;
12484;SDS011;6307;46.804;11.580;2022-09-06T06:21:15;4.63;;;4.23;;
12484;SDS011;6307;46.804;11.580;2022-09-06T06:23:55;6.20;;;4.40;;
12484;SDS011;6307;46.804;11.580;2022-09-06T06:26:24;10.50;;;4.30;;
12484;SDS011;6307;46.804;11.580;2022-09-06T06:28:52;4.70;;;4.10;;
12484;SDS011;6307;46.804;11.580;2022-09-06T06:31:19;7.87;;;3.93;;
12484;SDS011;6307;46.804;11.580;2022-09-06T06:33:46;5.80;;;4.20;;
12484;SDS011;6307;46.804;11.580;2022-09-06T06:38:40;5.17;;;4.10;;
12484;SDS011;6307;46.804;11.580;2022-09-06T06:41:10;8.80;;;4.13;;
12484;SDS011;6307;46.804;11.580;2022-09-06T06:43:39;5.23;;;4.20;;
12484;SDS011;6307;46.804;11.580;2022-09-06T06:46:09;7.70;;;4.00;;
12484;SDS011;6307;46.804;11.580;2022-09-06T06:48:39;6.97;;;4.07;;
12484;SDS011;6307;46.804;11.580;2022-09-06T06:51:07;6.30;;;4.10;;
12484;SDS011;6307;46.804;11.580;2022-09-06T06:53:43;7.07;;;4.00;;
12484;SDS011;6307;46.804;11.580;2022-09-06T06:58:42;9.13;;;4.50;;
12484;SDS011;6307;46.804;11.580;2022-09-06T07:01:09;4.40;;;4.00;;
12484;SDS011;6307;46.804;11.580;2022-09-06T07:03:37;4.63;;;4.00;;
12484;SDS011;6307;46.804;11.580;2022-09-06T07:06:03;5.37;;;3.77;;
12484;SDS011;6307;46.804;11.580;2022-09-06T07:08:31;6.60;;;3.90;;
12484;SDS011;6307;46.804;11.580;2022-09-06T07:10:58;6.03;;;3.83;;
12484;SDS011;6307;46.804;11.580;2022-09-06T07:13:24;5.03;;;3.40;;
12484;SDS011;6307;46.804;11.580;2022-09-06T07:15:50;8.50;;;3.40;;
12484;SDS011;6307;46.804;11.580;2022-09-06T07:18:17;8.17;;;3.30;;
12484;SDS011;6307;46.804;11.580;2022-09-06T07:20:43;3.87;;;3.40;;
12484;SDS011;6307;46.804;11.580;2022-09-06T07:23:09;5.37;;;3.10;;
12484;SDS011;6307;46.804;11.580;2022-09-06T07:25:35;5.97;;;3.70;;
12484;SDS011;6307;46.804;11.580;2022-09-06T07:28:03;5.80;;;2.87;;
12484;SDS011;6307;46.804;11.580;2022-09-06T07:30:34;4.17;;;3.27;;
12484;SDS011;6307;46.804;11.580;2022-09-06T07:33:02;4.00;;;3.10;;
12484;SDS011;6307;46.804;11.580;2022-09-06T07:35:31;5.00;;;3.17;;
12484;SDS011;6307;46.804;11.580;2022-09-06T07:37:58;3.80;;;3.30;;
12484;SDS011;6307;46.804;11.580;2022-09-06T07:40:27;4.27;;;3.30;;
12484;SDS011;6307;46.804;11.580;2022-09-06T07:42:55;4.47;;;2.63;;
12484;SDS011;6307;46.804;11.580;2022-09-06T07:45:23;6.27;;;2.87;;
12484;SDS011;6307;46.804;11.580;2022-09-06T07:47:56;4.50;;;2.57;;
12484;SDS011;6307;46.804;11.580;2022-09-06T07:50:27;4.13;;;2.60;;
12484;SDS011;6307;46.804;11.580;2022-09-06T07:52:55;3.27;;;2.57;;
12484;SDS011;6307;46.804;11.580;2022-09-06T07:55:31;3.93;;;2.67;;
12484;SDS011;6307;46.804;11.580;2022-09-06T07:57:58;5.97;;;2.77;;
12484;SDS011;6307;46.804;11.580;2022-09-06T08:00:24;5.87;;;2.40;;
12484;SDS011;6307;46.804;11.580;2022-09-06T08:02:51;5.07;;;2.73;;
12484;SDS011;6307;46.804;11.580;2022-09-06T08:05:17;3.27;;;2.50;;
12484;SDS011;6307;46.804;11.580;2022-09-06T08:07:43;2.67;;;2.33;;
12484;SDS011;6307;46.804;11.580;2022-09-06T08:10:09;3.20;;;2.17;;
12484;SDS011;6307;46.804;11.580;2022-09-06T08:12:35;3.37;;;2.40;;
12484;SDS011;6307;46.804;11.580;2022-09-06T08:15:02;6.60;;;2.47;;
12484;SDS011;6307;46.804;11.580;2022-09-06T08:17:28;2.40;;;2.20;;
12484;SDS011;6307;46.804;11.580;2022-09-06T08:19:59;4.23;;;2.30;;
12484;SDS011;6307;46.804;11.580;2022-09-06T08:22:30;2.60;;;2.40;;
12484;SDS011;6307;46.804;11.580;2022-09-06T08:24:57;2.60;;;2.00;;
12484;SDS011;6307;46.804;11.580;2022-09-06T08:27:24;3.90;;;2.57;;
12484;SDS011;6307;46.804;11.580;2022-09-06T08:29:50;4.13;;;2.30;;
12484;SDS011;6307;46.804;11.580;2022-09-06T08:32:16;2.90;;;2.00;;
12484;SDS011;6307;46.804;11.580;2022-09-06T08:34:43;3.97;;;2.40;;
12484;SDS011;6307;46.804;11.580;2022-09-06T08:37:09;5.97;;;2.40;;
12484;SDS011;6307;46.804;11.580;2022-09-06T08:39:35;3.57;;;2.30;;
12484;SDS011;6307;46.804;11.580;2022-09-06T08:42:05;3.17;;;2.37;;
12484;SDS011;6307;46.804;11.580;2022-09-06T08:44:38;4.30;;;2.63;;
12484;SDS011;6307;46.804;11.580;2022-09-06T08:49:34;2.80;;;2.37;;
12484;SDS011;6307;46.804;11.580;2022-09-06T08:52:22;2.67;;;2.47;;
12484;SDS011;6307;46.804;11.580;2022-09-06T09:00:30;3.07;;;2.40;;
12484;SDS011;6307;46.804;11.580;2022-09-06T09:05:39;4.80;;;2.70;;
12484;SDS011;6307;46.804;11.580;2022-09-06T09:11:07;2.30;;;2.10;;
12484;SDS011;6307;46.804;11.580;2022-09-06T09:16:20;2.50;;;2.30;;
12484;SDS011;6307;46.804;11.580;2022-09-06T09:18:48;3.10;;;2.30;;
12484;SDS011;6307;46.804;11.580;2022-09-06T09:21:22;3.37;;;2.20;;
12484;SDS011;6307;46.804;11.580;2022-09-06T09:23:55;3.23;;;2.30;;
12484;SDS011;6307;46.804;11.580;2022-09-06T09:26:27;2.90;;;2.30;;
12484;SDS011;6307;46.804;11.580;2022-09-06T09:29:07;3.20;;;2.10;;
12484;SDS011;6307;46.804;11.580;2022-09-06T09:31:40;3.13;;;2.33;;
12484;SDS011;6307;46.804;11.580;2022-09-06T09:34:14;3.40;;;2.33;;
12484;SDS011;6307;46.804;11.580;2022-09-06T09:37:20;3.27;;;2.00;;
12484;SDS011;6307;46.804;11.580;2022-09-06T09:39:49;5.63;;;2.50;;
12484;SDS011;6307;46.804;11.580;2022-09-06T09:42:25;7.10;;;2.30;;
12484;SDS011;6307;46.804;11.580;2022-09-06T09:44:59;2.30;;;2.10;;
12484;SDS011;6307;46.804;11.580;2022-09-06T09:47:30;3.87;;;2.20;;
12484;SDS011;6307;46.804;11.580;2022-09-06T09:49:58;2.97;;;2.30;;
12484;SDS011;6307;46.804;11.580;2022-09-06T09:52:25;4.47;;;2.27;;
12484;SDS011;6307;46.804;11.580;2022-09-06T09:55:04;7.87;;;2.53;;
12484;SDS011;6307;46.804;11.580;2022-09-06T09:57:41;2.10;;;1.90;;
12484;SDS011;6307;46.804;11.580;2022-09-06T10:00:10;2.67;;;2.00;;
12484;SDS011;6307;46.804;11.580;2022-09-06T10:02:40;5.73;;;2.23;;
12484;SDS011;6307;46.804;11.580;2022-09-06T10:05:14;2.97;;;2.00;;
12484;SDS011;6307;46.804;11.580;2022-09-06T10:07:46;3.67;;;1.80;;
12484;SDS011;6307;46.804;11.580;2022-09-06T10:10:26;2.33;;;1.73;;
12484;SDS011;6307;46.804;11.580;2022-09-06T10:15:56;1.97;;;1.50;;
12484;SDS011;6307;46.804;11.580;2022-09-06T10:21:02;2.63;;;1.77;;
12484;SDS011;6307;46.804;11.580;2022-09-06T10:26:35;1.63;;;1.53;;
12484;SDS011;6307;46.804;11.580;2022-09-06T10:29:21;2.60;;;1.57;;
12484;SDS011;6307;46.804;11.580;2022-09-06T10:43:20;2.03;;;1.80;;
12484;SDS011;6307;46.804;11.580;2022-09-06T10:54:13;4.63;;;2.17;;
12484;SDS011;6307;46.804;11.580;2022-09-06T10:57:10;2.40;;;2.20;;
12484;SDS011;6307;46.804;11.580;2022-09-06T11:02:37;4.73;;;2.30;;
12484;SDS011;6307;46.804;11.580;2022-09-06T11:05:16;2.73;;;2.20;;
12484;SDS011;6307;46.804;11.580;2022-09-06T11:08:02;2.50;;;2.30;;
12484;SDS011;6307;46.804;11.580;2022-09-06T11:10:40;3.07;;;2.33;;
12484;SDS011;6307;46.804;11.580;2022-09-06T11:13:15;4.97;;;2.50;;
12484;SDS011;6307;46.804;11.580;2022-09-06T11:15:49;3.83;;;2.47;;
12484;SDS011;6307;46.804;11.580;2022-09-06T11:18:42;3.23;;;2.27;;
12484;SDS011;6307;46.804;11.580;2022-09-06T11:25:21;4.83;;;2.10;;
12484;SDS011;6307;46.804;11.580;2022-09-06T11:27:39;2.23;;;2.00;;
12484;SDS011;6307;46.804;11.580;2022-09-06T11:30:13;4.57;;;2.30;;
12484;SDS011;6307;46.804;11.580;2022-09-06T11:32:42;2.87;;;2.00;;
12484;SDS011;6307;46.804;11.580;2022-09-06T11:35:21;2.27;;;1.90;;
12484;SDS011;6307;46.804;11.580;2022-09-06T11:38:01;4.07;;;2.00;;
12484;SDS011;6307;46.804;11.580;2022-09-06T11:40:39;5.50;;;2.10;;
12484;SDS011;6307;46.804;11.580;2022-09-06T11:46:01;3.30;;;2.10;;
12484;SDS011;6307;46.804;11.580;2022-09-06T11:53:25;2.90;;;2.27;;
12484;SDS011;6307;46.804;11.580;2022-09-06T11:58:29;2.87;;;2.13;;
12484;SDS011;6307;46.804;11.580;2022-09-06T12:01:57;2.40;;;1.93;;
12484;SDS011;6307;46.804;11.580;2022-09-06T12:06:25;2.97;;;1.90;;
12484;SDS011;6307;46.804;11.580;2022-09-06T12:08:56;2.37;;;2.17;;
12484;SDS011;6307;46.804;11.580;2022-09-06T12:14:01;3.20;;;2.33;;
12484;SDS011;6307;46.804;11.580;2022-09-06T12:24:57;2.23;;;2.03;;
12484;SDS011;6307;46.804;11.580;2022-09-06T12:27:25;3.37;;;2.10;;
12484;SDS011;6307;46.804;11.580;2022-09-06T12:30:01;6.50;;;2.53;;
12484;SDS011;6307;46.804;11.580;2022-09-06T12:35:20;3.33;;;1.80;;
12484;SDS011;6307;46.804;11.580;2022-09-06T12:37:53;3.27;;;2.13;;
12484;SDS011;6307;46.804;11.580;2022-09-06T12:40:21;2.83;;;2.30;;
12484;SDS011;6307;46.804;11.580;2022-09-06T12:42:51;3.40;;;2.00;;
12484;SDS011;6307;46.804;11.580;2022-09-06T12:45:19;3.43;;;2.17;;
12484;SDS011;6307;46.804;11.580;2022-09-06T12:47:48;3.27;;;2.10;;
12484;SDS011;6307;46.804;11.580;2022-09-06T12:50:23;2.20;;;1.67;;
12484;SDS011;6307;46.804;11.580;2022-09-06T12:52:55;2.73;;;1.90;;
12484;SDS011;6307;46.804;11.580;2022-09-06T12:58:06;3.23;;;1.70;;
12484;SDS011;6307;46.804;11.580;2022-09-06T13:00:35;3.03;;;2.20;;
12484;SDS011;6307;46.804;11.580;2022-09-06T13:03:34;4.90;;;1.93;;
12484;SDS011;6307;46.804;11.580;2022-09-06T13:06:15;2.20;;;1.70;;
12484;SDS011;6307;46.804;11.580;2022-09-06T13:08:47;2.50;;;2.03;;
12484;SDS011;6307;46.804;11.580;2022-09-06T13:11:17;7.13;;;2.60;;
12484;SDS011;6307;46.804;11.580;2022-09-06T13:13:53;5.87;;;2.43;;
12484;SDS011;6307;46.804;11.580;2022-09-06T13:16:20;6.97;;;2.20;;
12484;SDS011;6307;46.804;11.580;2022-09-06T13:18:50;5.87;;;2.07;;
12484;SDS011;6307;46.804;11.580;2022-09-06T13:21:25;4.27;;;2.30;;
12484;SDS011;6307;46.804;11.580;2022-09-06T13:23:59;6.77;;;2.30;;
12484;SDS011;6307;46.804;11.580;2022-09-06T13:26:41;3.43;;;2.20;;
12484;SDS011;6307;46.804;11.580;2022-09-06T13:29:52;3.13;;;2.13;;
12484;SDS011;6307;46.804;11.580;2022-09-06T13:31:58;5.80;;;2.07;;
12484;SDS011;6307;46.804;11.580;2022-09-06T13:34:32;3.37;;;1.93;;
12484;SDS011;6307;46.804;11.580;2022-09-06T13:36:59;2.77;;;2.10;;
12484;SDS011;6307;46.804;11.580;2022-09-06T13:39:33;1.90;;;1.80;;
12484;SDS011;6307;46.804;11.580;2022-09-06T13:44:33;3.93;;;2.10;;
12484;SDS011;6307;46.804;11.580;2022-09-06T13:47:03;6.07;;;2.17;;
12484;SDS011;6307;46.804;11.580;2022-09-06T13:49:30;2.77;;;2.13;;
12484;SDS011;6307;46.804;11.580;2022-09-06T13:51:59;3.17;;;1.90;;
12484;SDS011;6307;46.804;11.580;2022-09-06T13:54:28;2.63;;;2.00;;
12484;SDS011;6307;46.804;11.580;2022-09-06T13:56:55;3.47;;;2.00;;
12484;SDS011;6307;46.804;11.580;2022-09-06T13:59:22;1.97;;;1.80;;
12484;SDS011;6307;46.804;11.580;2022-09-06T14:01:58;1.93;;;1.83;;
12484;SDS011;6307;46.804;11.580;2022-09-06T14:04:28;2.20;;;2.00;;
12484;SDS011;6307;46.804;11.580;2022-09-06T14:06:56;3.63;;;1.87;;
12484;SDS011;6307;46.804;11.580;2022-09-06T14:09:23;3.97;;;1.90;;
12484;SDS011;6307;46.804;11.580;2022-09-06T14:14:57;4.33;;;2.10;;
12484;SDS011;6307;46.804;11.580;2022-09-06T14:17:23;3.00;;;1.97;;
12484;SDS011;6307;46.804;11.580;2022-09-06T14:19:49;3.63;;;1.80;;
12484;SDS011;6307;46.804;11.580;2022-09-06T14:22:16;8.90;;;2.93;;
12484;SDS011;6307;46.804;11.580;2022-09-06T14:24:42;4.40;;;1.90;;
12484;SDS011;6307;46.804;11.580;2022-09-06T14:27:08;4.53;;;1.93;;
12484;SDS011;6307;46.804;11.580;2022-09-06T14:29:34;2.40;;;1.90;;
12484;SDS011;6307;46.804;11.580;2022-09-06T14:32:01;3.73;;;2.00;;
12484;SDS011;6307;46.804;11.580;2022-09-06T14:34:27;2.30;;;1.83;;
12484;SDS011;6307;46.804;11.580;2022-09-06T14:36:53;3.47;;;2.10;;
12484;SDS011;6307;46.804;11.580;2022-09-06T14:39:19;3.87;;;2.17;;
12484;SDS011;6307;46.804;11.580;2022-09-06T14:41:46;2.77;;;2.07;;
12484;SDS011;6307;46.804;11.580;2022-09-06T14:44:12;2.87;;;1.97;;
12484;SDS011;6307;46.804;11.580;2022-09-06T14:46:38;3.37;;;2.13;;
12484;SDS011;6307;46.804;11.580;2022-09-06T14:49:06;2.10;;;1.83;;
12484;SDS011;6307;46.804;11.580;2022-09-06T14:51:34;2.53;;;2.00;;
12484;SDS011;6307;46.804;11.580;2022-09-06T14:54:07;2.47;;;1.73;;
12484;SDS011;6307;46.804;11.580;2022-09-06T14:56:36;2.20;;;2.00;;
12484;SDS011;6307;46.804;11.580;2022-09-06T14:59:05;2.00;;;1.90;;
12484;SDS011;6307;46.804;11.580;2022-09-06T15:01:32;2.40;;;2.03;;
12484;SDS011;6307;46.804;11.580;2022-09-06T15:04:00;3.30;;;1.90;;
12484;SDS011;6307;46.804;11.580;2022-09-06T15:06:29;4.17;;;2.60;;
12484;SDS011;6307;46.804;11.580;2022-09-06T15:08:57;3.00;;;2.10;;
12484;SDS011;6307;46.804;11.580;2022-09-06T15:14:01;3.30;;;2.50;;
12484;SDS011;6307;46.804;11.580;2022-09-06T15:16:32;3.13;;;2.33;;
12484;SDS011;6307;46.804;11.580;2022-09-06T15:18:59;5.13;;;2.27;;
12484;SDS011;6307;46.804;11.580;2022-09-06T15:21:26;3.70;;;2.13;;
12484;SDS011;6307;46.804;11.580;2022-09-06T15:23:53;6.03;;;2.27;;
12484;SDS011;6307;46.804;11.580;2022-09-06T15:26:21;4.03;;;2.30;;
12484;SDS011;6307;46.804;11.580;2022-09-06T15:28:47;2.67;;;2.13;;
12484;SDS011;6307;46.804;11.580;2022-09-06T15:31:14;5.27;;;2.30;;
12484;SDS011;6307;46.804;11.580;2022-09-06T15:33:41;4.47;;;2.33;;
12484;SDS011;6307;46.804;11.580;2022-09-06T15:36:08;4.27;;;2.60;;
12484;SDS011;6307;46.804;11.580;2022-09-06T15:38:38;3.43;;;2.30;;
12484;SDS011;6307;46.804;11.580;2022-09-06T15:41:12;3.83;;;2.10;;
12484;SDS011;6307;46.804;11.580;2022-09-06T15:43:43;2.70;;;2.40;;
12484;SDS011;6307;46.804;11.580;2022-09-06T15:46:19;3.10;;;2.10;;
12484;SDS011;6307;46.804;11.580;2022-09-06T15:49:00;3.23;;;2.20;;
12484;SDS011;6307;46.804;11.580;2022-09-06T15:51:29;2.13;;;1.93;;
12484;SDS011;6307;46.804;11.580;2022-09-06T15:53:59;2.50;;;2.20;;
12484;SDS011;6307;46.804;11.580;2022-09-06T15:56:25;2.47;;;2.27;;
12484;SDS011;6307;46.804;11.580;2022-09-06T15:58:51;2.30;;;2.10;;
12484;SDS011;6307;46.804;11.580;2022-09-06T16:01:18;2.67;;;2.00;;
12484;SDS011;6307;46.804;11.580;2022-09-06T16:03:48;2.87;;;2.00;;
12484;SDS011;6307;46.804;11.580;2022-09-06T16:06:27;4.93;;;2.50;;
12484;SDS011;6307;46.804;11.580;2022-09-06T16:09:10;4.77;;;2.30;;
12484;SDS011;6307;46.804;11.580;2022-09-06T16:11:38;3.67;;;2.30;;
12484;SDS011;6307;46.804;11.580;2022-09-06T16:14:06;2.57;;;2.37;;
12484;SDS011;6307;46.804;11.580;2022-09-06T16:16:37;2.73;;;2.50;;
12484;SDS011;6307;46.804;11.580;2022-09-06T16:19:05;3.57;;;2.20;;
12484;SDS011;6307;46.804;11.580;2022-09-06T16:21:32;3.43;;;2.30;;
12484;SDS011;6307;46.804;11.580;2022-09-06T16:24:06;2.33;;;2.13;;
12484;SDS011;6307;46.804;11.580;2022-09-06T16:26:36;2.40;;;2.20;;
12484;SDS011;6307;46.804;11.580;2022-09-06T16:29:06;3.17;;;2.30;;
12484;SDS011;6307;46.804;11.580;2022-09-06T16:31:34;3.00;;;2.20;;
12484;SDS011;6307;46.804;11.580;2022-09-06T16:34:01;2.43;;;2.20;;
12484;SDS011;6307;46.804;11.580;2022-09-06T16:36:27;2.43;;;2.23;;
12484;SDS011;6307;46.804;11.580;2022-09-06T16:38:54;3.30;;;2.27;;
12484;SDS011;6307;46.804;11.580;2022-09-06T16:43:50;2.87;;;2.23;;
12484;SDS011;6307;46.804;11.580;2022-09-06T16:46:17;2.53;;;2.30;;
12484;SDS011;6307;46.804;11.580;2022-09-06T16:48:52;3.93;;;2.67;;
12484;SDS011;6307;46.804;11.580;2022-09-06T16:51:28;2.60;;;2.40;;
12484;SDS011;6307;46.804;11.580;2022-09-06T16:53:55;3.10;;;2.80;;
12484;SDS011;6307;46.804;11.580;2022-09-06T16:56:24;5.23;;;2.97;;
12484;SDS011;6307;46.804;11.580;2022-09-06T16:58:57;2.57;;;2.37;;
12484;SDS011;6307;46.804;11.580;2022-09-06T17:01:27;4.77;;;2.67;;
12484;SDS011;6307;46.804;11.580;2022-09-06T17:03:55;3.37;;;2.50;;
12484;SDS011;6307;46.804;11.580;2022-09-06T17:06:23;2.57;;;2.27;;
12484;SDS011;6307;46.804;11.580;2022-09-06T17:08:49;2.63;;;2.43;;
12484;SDS011;6307;46.804;11.580;2022-09-06T17:11:17;3.63;;;2.60;;